createdAt,value
2023-06-10T00:00:08.818Z,54.03
2023-06-10T00:01:18.469Z,54.07
2023-06-10T00:02:20.702Z,54.33
2023-06-10T00:03:24.687Z,54.25
2023-06-10T00:04:28.123Z,54.06
2023-06-10T00:05:32.145Z,54.31
2023-06-10T00:06:36.773Z,54.18
2023-06-10T00:07:39.711Z,54.19
2023-06-10T00:08:42.788Z,53.73
2023-06-10T00:09:46.846Z,54.39
2023-06-10T00:10:49.291Z,54.53
2023-06-10T00:11:51.664Z,54.38
2023-06-10T00:12:53.942Z,54.79
2023-06-10T00:13:57.316Z,55.15
2023-06-10T00:14:59.864Z,55.07
2023-06-10T00:16:04.414Z,55.01
2023-06-10T00:17:09.792Z,55.18
2023-06-10T00:18:12.298Z,54.47
2023-06-10T00:19:16.016Z,55.02
2023-06-10T00:20:20.141Z,55.23
2023-06-10T00:21:24.786Z,54.83
2023-06-10T00:22:28.821Z,55.30
2023-06-10T00:23:32.367Z,55.65
2023-06-10T00:24:35.901Z,55.68
2023-06-10T00:25:39.248Z,54.90
2023-06-10T00:26:42.656Z,56.04
2023-06-10T00:27:46.333Z,56.11
2023-06-10T00:28:49.440Z,55.36
2023-06-10T00:29:52.192Z,56.06
2023-06-10T00:30:55.130Z,56.00
2023-06-10T00:31:58.083Z,55.84
2023-06-10T00:33:00.654Z,56.53
2023-06-10T00:34:03.184Z,56.78
2023-06-10T00:35:08.761Z,56.90
2023-06-10T00:36:12.190Z,55.83
2023-06-10T00:37:14.513Z,55.48
2023-06-10T00:38:16.785Z,56.83
2023-06-10T00:39:19.070Z,56.61
2023-06-10T00:40:21.948Z,56.76
2023-06-10T00:41:24.883Z,56.98
2023-06-10T00:42:27.215Z,55.96
2023-06-10T00:43:30.333Z,56.72
2023-06-10T00:44:32.704Z,56.76
2023-06-10T00:45:35.673Z,57.59
2023-06-10T00:46:38.951Z,57.59
2023-06-10T00:47:41.976Z,56.59
2023-06-10T00:48:45.650Z,56.96
2023-06-10T00:49:50.067Z,57.57
2023-06-10T00:50:53.194Z,57.22
2023-06-10T00:51:55.743Z,58.16
2023-06-10T00:52:58.928Z,58.55
2023-06-10T00:54:02.601Z,59.14
2023-06-10T00:55:12.623Z,59.42
2023-06-10T00:56:17.635Z,59.75
2023-06-10T00:57:20.561Z,60.15
2023-06-10T00:58:26.262Z,60.33
2023-06-10T00:59:31.013Z,60.24
2023-06-10T01:00:33.442Z,60.23
2023-06-10T01:01:38.689Z,60.81
2023-06-10T01:02:41.935Z,60.74
2023-06-10T01:03:45.910Z,60.45
2023-06-10T01:04:50.890Z,60.68
2023-06-10T01:05:58.836Z,60.87
2023-06-10T01:07:09.923Z,61.12
2023-06-10T01:08:23.556Z,61.36
2023-06-10T01:09:31.023Z,61.36
2023-06-10T01:10:46.307Z,61.47
2023-06-10T01:11:52.215Z,61.37
2023-06-10T01:13:02.971Z,62.05
2023-06-10T01:14:08.110Z,61.55
2023-06-10T01:15:11.766Z,62.29
2023-06-10T01:16:15.530Z,62.28
2023-06-10T01:17:18.700Z,61.58
2023-06-10T01:18:22.150Z,62.06
2023-06-10T01:19:24.783Z,62.02
2023-06-10T01:20:28.027Z,62.25
2023-06-10T01:21:33.407Z,62.46
2023-06-10T01:22:37.005Z,62.88
2023-06-10T01:23:39.275Z,62.68
2023-06-10T01:24:43.986Z,62.88
2023-06-10T01:25:56.981Z,62.74
2023-06-10T01:27:02.984Z,63.18
2023-06-10T01:28:27.298Z,63.02
2023-06-10T01:29:38.032Z,62.68
2023-06-10T01:30:47.853Z,62.85
2023-06-10T01:32:11.342Z,63.17
2023-06-10T01:33:18.112Z,63.39
2023-06-10T01:34:24.891Z,63.60
2023-06-10T01:35:29.411Z,63.48
2023-06-10T01:36:34.600Z,63.42
2023-06-10T01:37:40.138Z,63.46
2023-06-10T01:38:47.918Z,63.60
2023-06-10T01:39:51.634Z,63.42
2023-06-10T01:40:57.102Z,63.65
2023-06-10T01:42:01.419Z,63.82
2023-06-10T01:43:04.008Z,63.88
2023-06-10T01:44:06.380Z,63.54
2023-06-10T01:45:09.667Z,63.27
2023-06-10T01:46:13.087Z,63.25
2023-06-10T01:47:15.571Z,62.84
2023-06-10T01:48:17.800Z,63.53
2023-06-10T01:49:20.289Z,63.49
2023-06-10T01:50:23.524Z,63.59
2023-06-10T01:51:25.818Z,63.29
2023-06-10T01:52:29.081Z,62.92
2023-06-10T01:53:31.474Z,62.81
2023-06-10T01:54:35.334Z,62.91
2023-06-10T01:55:37.940Z,62.66
2023-06-10T01:56:40.347Z,62.41
2023-06-10T01:57:42.726Z,62.12
2023-06-10T01:58:45.587Z,61.93
2023-06-10T01:59:47.914Z,61.73
2023-06-10T02:00:51.381Z,61.66
2023-06-10T02:01:53.693Z,61.65
2023-06-10T02:02:56.108Z,61.72
2023-06-10T02:03:58.566Z,61.86
2023-06-10T02:05:01.500Z,61.47
2023-06-10T02:06:04.406Z,62.13
2023-06-10T02:07:06.580Z,61.99
2023-06-10T02:08:09.022Z,62.70
2023-06-10T02:09:11.366Z,62.77
2023-06-10T02:10:15.276Z,62.96
2023-06-10T02:11:17.614Z,62.95
2023-06-10T02:12:20.077Z,63.17
2023-06-10T02:13:22.484Z,62.47
2023-06-10T02:14:26.580Z,62.77
2023-06-10T02:15:28.748Z,62.92
2023-06-10T02:16:32.827Z,63.10
2023-06-10T02:17:35.212Z,62.92
2023-06-10T02:18:37.547Z,63.14
2023-06-10T02:19:41.802Z,62.74
2023-06-10T02:20:44.633Z,62.94
2023-06-10T02:21:47.019Z,62.74
2023-06-10T02:22:49.321Z,62.41
2023-06-10T02:23:51.655Z,62.44
2023-06-10T02:24:53.856Z,61.90
2023-06-10T02:25:56.126Z,61.80
2023-06-10T02:27:00.165Z,61.86
2023-06-10T02:28:03.988Z,61.68
2023-06-10T02:29:06.416Z,61.68
2023-06-10T02:30:10.837Z,61.60
2023-06-10T02:31:13.902Z,61.47
2023-06-10T02:32:17.177Z,61.60
2023-06-10T02:33:20.794Z,61.39
2023-06-10T02:34:23.102Z,61.54
2023-06-10T02:35:25.471Z,61.65
2023-06-10T02:36:28.413Z,60.73
2023-06-10T02:37:31.245Z,61.53
2023-06-10T02:38:33.888Z,61.27
2023-06-10T02:39:37.610Z,60.70
2023-06-10T02:40:42.843Z,60.70
2023-06-10T02:41:45.889Z,60.96
2023-06-10T02:42:49.729Z,60.77
2023-06-10T02:43:52.699Z,60.99
2023-06-10T02:44:55.319Z,60.93
2023-06-10T02:45:59.545Z,60.93
2023-06-10T02:47:01.960Z,60.86
2023-06-10T02:48:05.336Z,61.30
2023-06-10T02:49:08.115Z,61.56
2023-06-10T02:50:12.087Z,61.59
2023-06-10T02:51:16.762Z,61.90
2023-06-10T02:52:21.032Z,61.86
2023-06-10T02:53:23.542Z,62.17
2023-06-10T02:54:27.844Z,62.18
2023-06-10T02:55:31.182Z,62.97
2023-06-10T02:56:36.923Z,63.45
2023-06-10T02:57:40.350Z,63.30
2023-06-10T02:58:43.334Z,63.46
2023-06-10T02:59:46.267Z,63.58
2023-06-10T03:00:49.465Z,63.68
2023-06-10T03:01:51.555Z,63.83
2023-06-10T03:02:56.088Z,63.61
2023-06-10T03:04:01.433Z,63.59
2023-06-10T03:05:08.589Z,64.05
2023-06-10T03:06:11.454Z,63.89
2023-06-10T03:07:14.405Z,63.69
2023-06-10T03:08:16.953Z,63.28
2023-06-10T03:09:19.766Z,63.25
2023-06-10T03:10:23.854Z,64.00
2023-06-10T03:11:27.238Z,63.42
2023-06-10T03:12:29.381Z,63.07
2023-06-10T03:13:32.967Z,62.99
2023-06-10T03:14:35.779Z,63.38
2023-06-10T03:15:40.410Z,62.87
2023-06-10T03:16:43.976Z,63.71
2023-06-10T03:17:46.880Z,63.69
2023-06-10T03:18:50.179Z,62.90
2023-06-10T03:19:52.558Z,62.80
2023-06-10T03:20:58.094Z,62.58
2023-06-10T03:22:12.455Z,62.48
2023-06-10T03:23:19.403Z,61.89
2023-06-10T03:24:22.420Z,61.44
2023-06-10T03:25:27.170Z,62.48
2023-06-10T03:26:30.082Z,62.08
2023-06-10T03:27:33.367Z,62.35
2023-06-10T03:28:37.205Z,61.80
2023-06-10T03:29:40.369Z,61.69
2023-06-10T03:30:43.179Z,61.73
2023-06-10T03:31:45.997Z,61.15
2023-06-10T03:32:49.771Z,61.11
2023-06-10T03:33:53.433Z,60.91
2023-06-10T03:34:57.752Z,61.20
2023-06-10T03:36:00.626Z,61.60
2023-06-10T03:37:04.752Z,61.60
2023-06-10T03:38:08.210Z,61.52
2023-06-10T03:39:12.485Z,61.19
2023-06-10T03:40:15.380Z,60.71
2023-06-10T03:41:19.630Z,61.41
2023-06-10T03:42:22.346Z,61.70
2023-06-10T03:43:25.983Z,61.36
2023-06-10T03:44:28.542Z,61.43
2023-06-10T03:45:32.492Z,61.47
2023-06-10T03:46:35.020Z,62.06
2023-06-10T03:47:39.850Z,61.93
2023-06-10T03:48:45.044Z,62.01
2023-06-10T03:49:47.744Z,62.25
2023-06-10T03:50:53.683Z,62.18
2023-06-10T03:51:58.042Z,62.41
2023-06-10T03:53:01.628Z,62.58
2023-06-10T03:54:04.173Z,62.71
2023-06-10T03:55:08.790Z,62.62
2023-06-10T03:56:11.753Z,62.28
2023-06-10T03:57:15.628Z,63.30
2023-06-10T03:58:18.843Z,62.84
2023-06-10T03:59:22.715Z,62.84
2023-06-10T04:00:26.597Z,62.63
2023-06-10T04:01:29.536Z,61.72
2023-06-10T04:02:33.311Z,62.96
2023-06-10T04:03:35.735Z,63.05
2023-06-10T04:04:38.212Z,62.44
2023-06-10T04:05:40.913Z,62.32
2023-06-10T04:06:45.447Z,62.63
2023-06-10T04:07:48.959Z,62.71
2023-06-10T04:08:51.239Z,61.67
2023-06-10T04:09:53.809Z,61.94
2023-06-10T04:10:56.835Z,62.33
2023-06-10T04:11:59.806Z,62.26
2023-06-10T04:13:03.842Z,62.25
2023-06-10T04:14:09.244Z,61.88
2023-06-10T04:15:13.177Z,62.42
2023-06-10T04:16:16.526Z,62.08
2023-06-10T04:17:19.049Z,61.97
2023-06-10T04:18:25.043Z,62.03
2023-06-10T04:19:30.786Z,62.29
2023-06-10T04:20:33.882Z,61.90
2023-06-10T04:21:37.024Z,61.84
2023-06-10T04:22:39.227Z,62.38
2023-06-10T04:23:41.618Z,62.57
2023-06-10T04:24:44.635Z,62.52
2023-06-10T04:25:47.998Z,62.11
2023-06-10T04:26:50.767Z,63.35
2023-06-10T04:27:54.141Z,63.64
2023-06-10T04:28:56.648Z,63.45
2023-06-10T04:30:00.382Z,62.93
2023-06-10T04:31:04.563Z,63.46
2023-06-10T04:32:07.993Z,63.54
2023-06-10T04:33:10.930Z,63.31
2023-06-10T04:34:15.216Z,64.06
2023-06-10T04:35:17.657Z,63.92
2023-06-10T04:36:21.168Z,63.69
2023-06-10T04:37:23.384Z,63.24
2023-06-10T04:38:25.830Z,63.53
2023-06-10T04:39:28.099Z,63.62
2023-06-10T04:40:31.727Z,63.19
2023-06-10T04:41:34.320Z,63.33
2023-06-10T04:42:37.588Z,63.33
2023-06-10T04:43:39.817Z,63.53
2023-06-10T04:44:42.119Z,63.43
2023-06-10T04:45:45.725Z,63.27
2023-06-10T04:46:48.687Z,62.53
2023-06-10T04:47:51.037Z,63.34
2023-06-10T04:48:54.958Z,63.28
2023-06-10T04:49:57.394Z,62.88
2023-06-10T04:51:00.776Z,62.98
2023-06-10T04:52:05.347Z,62.67
2023-06-10T04:53:09.656Z,62.69
2023-06-10T04:54:12.871Z,62.52
2023-06-10T04:55:15.661Z,62.03
2023-06-10T04:56:19.318Z,61.73
2023-06-10T04:57:22.312Z,61.36
2023-06-10T04:58:24.875Z,61.31
2023-06-10T04:59:27.251Z,60.83
2023-06-10T05:00:29.780Z,60.63
2023-06-10T05:01:32.056Z,60.96
2023-06-10T05:02:36.533Z,60.71
2023-06-10T05:03:39.394Z,59.65
2023-06-10T05:04:43.092Z,60.54
2023-06-10T05:05:49.025Z,60.17
2023-06-10T05:06:51.365Z,60.54
2023-06-10T05:07:53.757Z,60.63
2023-06-10T05:08:56.117Z,60.42
2023-06-10T05:09:58.308Z,60.46
2023-06-10T05:11:01.328Z,59.57
2023-06-10T05:12:05.057Z,59.44
2023-06-10T05:13:07.318Z,59.31
2023-06-10T05:14:09.615Z,59.42
2023-06-10T05:15:12.530Z,59.20
2023-06-10T05:16:15.764Z,58.87
2023-06-10T05:17:18.052Z,58.87
2023-06-10T05:18:21.482Z,58.54
2023-06-10T05:19:24.097Z,58.21
2023-06-10T05:20:27.147Z,58.22
2023-06-10T05:21:29.903Z,57.92
2023-06-10T05:22:33.298Z,57.79
2023-06-10T05:23:35.697Z,58.35
2023-06-10T05:24:38.553Z,58.47
2023-06-10T05:25:42.296Z,58.20
2023-06-10T05:26:44.923Z,57.85
2023-06-10T05:27:47.113Z,58.20
2023-06-10T05:28:49.474Z,58.82
2023-06-10T05:29:54.206Z,58.93
2023-06-10T05:30:57.110Z,58.95
2023-06-10T05:32:01.494Z,58.91
2023-06-10T05:33:04.967Z,58.94
2023-06-10T05:34:07.438Z,58.67
2023-06-10T05:35:10.679Z,58.50
2023-06-10T05:36:13.675Z,58.29
2023-06-10T05:37:16.077Z,58.53
2023-06-10T05:38:18.578Z,58.10
2023-06-10T05:39:22.147Z,57.54
2023-06-10T05:40:24.740Z,57.77
2023-06-10T05:41:27.004Z,57.64
2023-06-10T05:42:29.311Z,57.60
2023-06-10T05:43:32.187Z,57.39
2023-06-10T05:44:34.819Z,56.98
2023-06-10T05:45:38.113Z,57.00
2023-06-10T05:46:40.637Z,56.95
2023-06-10T05:47:43.047Z,56.89
2023-06-10T05:48:45.459Z,56.68
2023-06-10T05:49:49.655Z,56.90
2023-06-10T05:50:53.258Z,56.79
2023-06-10T05:51:57.973Z,56.55
2023-06-10T05:53:00.960Z,56.26
2023-06-10T05:54:03.589Z,55.91
2023-06-10T05:55:07.564Z,55.63
2023-06-10T05:56:11.337Z,54.71
2023-06-10T05:57:13.780Z,54.71
2023-06-10T05:58:16.091Z,54.49
2023-06-10T05:59:18.988Z,54.02
2023-06-10T06:00:21.877Z,53.52
2023-06-10T06:01:24.992Z,53.82
2023-06-10T06:02:27.638Z,53.69
2023-06-10T06:03:30.315Z,53.79
2023-06-10T06:04:33.224Z,53.79
2023-06-10T06:05:37.934Z,53.72
2023-06-10T06:06:41.236Z,52.65
2023-06-10T06:07:44.985Z,53.30
2023-06-10T06:08:47.906Z,52.43
2023-06-10T06:09:51.198Z,52.39
2023-06-10T06:10:53.541Z,52.51
2023-06-10T06:11:56.870Z,52.51
2023-06-10T06:12:59.505Z,52.87
2023-06-10T06:14:02.081Z,52.79
2023-06-10T06:15:05.126Z,52.16
2023-06-10T06:16:09.939Z,51.86
2023-06-10T06:17:13.690Z,51.48
2023-06-10T06:18:16.419Z,50.89
2023-06-10T06:19:18.866Z,49.92
2023-06-10T06:20:21.794Z,49.92
2023-06-10T06:21:24.336Z,50.03
2023-06-10T06:22:26.691Z,49.79
2023-06-10T06:23:28.929Z,49.76
2023-06-10T06:24:32.019Z,50.04
2023-06-10T06:25:36.114Z,50.20
2023-06-10T06:26:38.727Z,49.77
2023-06-10T06:27:41.592Z,49.52
2023-06-10T06:28:44.211Z,48.97
2023-06-10T06:29:48.394Z,48.98
2023-06-10T06:30:51.324Z,49.68
2023-06-10T06:31:53.696Z,50.25
2023-06-10T06:32:56.702Z,49.80
2023-06-10T06:33:59.156Z,49.78
2023-06-10T06:35:02.722Z,49.81
2023-06-10T06:36:05.679Z,49.81
2023-06-10T06:37:08.571Z,49.86
2023-06-10T06:38:11.684Z,49.89
2023-06-10T06:39:14.649Z,49.90
2023-06-10T06:40:18.545Z,50.52
2023-06-10T06:41:22.373Z,50.52
2023-06-10T06:42:24.634Z,50.50
2023-06-10T06:43:29.205Z,50.52
2023-06-10T06:44:36.675Z,50.82
2023-06-10T06:45:39.156Z,50.99
2023-06-10T06:46:41.687Z,50.93
2023-06-10T06:47:46.270Z,51.04
2023-06-10T06:48:49.330Z,51.63
2023-06-10T06:49:52.152Z,51.78
2023-06-10T06:50:57.689Z,52.01
2023-06-10T06:52:01.237Z,51.89
2023-06-10T06:53:05.780Z,51.63
2023-06-10T06:54:08.274Z,51.63
2023-06-10T06:55:10.811Z,51.04
2023-06-10T06:56:14.191Z,50.96
2023-06-10T06:57:16.571Z,50.59
2023-06-10T06:58:18.880Z,50.24
2023-06-10T06:59:21.432Z,50.45
2023-06-10T07:00:24.345Z,50.92
2023-06-10T07:01:27.561Z,51.04
2023-06-10T07:02:30.077Z,51.45
2023-06-10T07:03:32.662Z,51.50
2023-06-10T07:04:35.574Z,51.29
2023-06-10T07:05:39.835Z,51.03
2023-06-10T07:06:42.755Z,51.42
2023-06-10T07:07:45.128Z,52.16
2023-06-10T07:08:49.348Z,52.38
2023-06-10T07:09:51.983Z,52.37
2023-06-10T07:10:55.851Z,52.31
2023-06-10T07:11:59.284Z,52.02
2023-06-10T07:13:01.852Z,52.08
2023-06-10T07:14:04.328Z,52.51
2023-06-10T07:15:08.432Z,52.71
2023-06-10T07:16:12.789Z,52.73
2023-06-10T07:17:15.344Z,53.05
2023-06-10T07:18:18.922Z,53.19
2023-06-10T07:19:21.287Z,53.42
2023-06-10T07:20:23.763Z,53.23
2023-06-10T07:21:26.355Z,53.26
2023-06-10T07:22:28.560Z,53.39
2023-06-10T07:23:30.816Z,53.30
2023-06-10T07:24:33.157Z,53.18
2023-06-10T07:25:35.571Z,53.41
2023-06-10T07:26:38.082Z,53.63
2023-06-10T07:27:40.428Z,53.32
2023-06-10T07:28:42.728Z,53.27
2023-06-10T07:29:45.444Z,52.97
2023-06-10T07:30:48.157Z,52.87
2023-06-10T07:31:50.631Z,52.56
2023-06-10T07:32:53.363Z,52.31
2023-06-10T07:33:56.273Z,52.00
2023-06-10T07:34:59.354Z,51.89
2023-06-10T07:36:02.635Z,51.83
2023-06-10T07:37:05.775Z,51.32
2023-06-10T07:38:10.217Z,50.75
2023-06-10T07:39:12.707Z,50.63
2023-06-10T07:40:15.351Z,50.58
2023-06-10T07:41:19.166Z,50.53
2023-06-10T07:42:21.740Z,50.71
2023-06-10T07:43:25.824Z,50.66
2023-06-10T07:44:28.682Z,50.27
2023-06-10T07:45:31.202Z,50.03
2023-06-10T07:46:35.765Z,50.07
2023-06-10T07:47:38.350Z,50.73
2023-06-10T07:48:41.050Z,50.41
2023-06-10T07:49:43.893Z,50.41
2023-06-10T07:50:46.978Z,50.10
2023-06-10T07:51:50.626Z,49.56
2023-06-10T07:52:53.517Z,49.63
2023-06-10T07:53:56.728Z,49.08
2023-06-10T07:54:58.965Z,48.91
2023-06-10T07:56:01.852Z,48.84
2023-06-10T07:57:05.672Z,48.65
2023-06-10T07:58:08.665Z,48.74
2023-06-10T07:59:12.548Z,48.68
2023-06-10T08:00:16.321Z,48.56
2023-06-10T08:01:19.226Z,48.42
2023-06-10T08:02:25.497Z,48.49
2023-06-10T08:03:28.874Z,49.15
2023-06-10T08:04:31.681Z,49.08
2023-06-10T08:05:34.880Z,48.58
2023-06-10T08:06:37.386Z,49.04
2023-06-10T08:07:43.202Z,48.92
2023-06-10T08:08:46.376Z,48.57
2023-06-10T08:09:50.465Z,48.34
2023-06-10T08:10:54.638Z,48.65
2023-06-10T08:11:58.081Z,48.75
2023-06-10T08:13:00.728Z,48.75
2023-06-10T08:14:04.265Z,48.77
2023-06-10T08:15:08.068Z,48.92
2023-06-10T08:16:11.756Z,49.01
2023-06-10T08:17:14.382Z,49.05
2023-06-10T08:18:18.858Z,49.03
2023-06-10T08:19:21.353Z,49.08
2023-06-10T08:20:24.438Z,48.95
2023-06-10T08:21:29.043Z,48.80
2023-06-10T08:22:32.713Z,49.06
2023-06-10T08:23:35.508Z,49.40
2023-06-10T08:24:38.326Z,49.53
2023-06-10T08:25:41.287Z,49.49
2023-06-10T08:26:44.176Z,49.56
2023-06-10T08:27:46.623Z,49.60
2023-06-10T08:28:50.116Z,49.51
2023-06-10T08:29:52.562Z,49.84
2023-06-10T08:32:28.160Z,49.21
2023-06-10T08:33:30.654Z,49.32
2023-06-10T08:34:36.503Z,49.15
2023-06-10T08:35:39.928Z,48.84
2023-06-10T08:36:46.105Z,48.94
2023-06-10T08:37:50.075Z,48.73
2023-06-10T08:38:53.016Z,48.86
2023-06-10T08:39:55.321Z,48.91
2023-06-10T08:41:01.311Z,48.90
2023-06-10T08:42:25.637Z,48.76
2023-06-10T08:43:40.279Z,48.48
2023-06-10T08:44:44.287Z,48.86
2023-06-10T08:45:49.444Z,48.62
2023-06-10T08:46:56.424Z,48.61
2023-06-10T08:47:59.791Z,48.56
2023-06-10T08:49:05.842Z,48.60
2023-06-10T08:50:12.595Z,48.24
2023-06-10T08:51:18.491Z,47.82
2023-06-10T08:52:21.532Z,47.60
2023-06-10T08:53:25.904Z,47.38
2023-06-10T08:54:32.999Z,47.24
2023-06-10T08:55:42.246Z,47.52
2023-06-10T08:56:47.875Z,47.54
2023-06-10T08:57:50.625Z,47.53
2023-06-10T08:58:55.092Z,47.53
2023-06-10T08:59:58.924Z,47.39
2023-06-10T09:01:02.485Z,47.71
2023-06-10T09:02:06.352Z,47.99
2023-06-10T09:03:10.304Z,48.48
2023-06-10T09:04:14.684Z,48.78
2023-06-10T09:05:17.262Z,48.95
2023-06-10T09:06:20.642Z,49.16
2023-06-10T09:07:26.911Z,49.19
2023-06-10T09:08:31.054Z,48.87
2023-06-10T09:09:35.475Z,49.09
2023-06-10T09:10:38.511Z,49.03
2023-06-10T09:11:43.029Z,49.48
2023-06-10T09:12:46.953Z,49.52
2023-06-10T09:13:49.332Z,50.04
2023-06-10T09:14:53.667Z,50.01
2023-06-10T09:15:57.978Z,49.68
2023-06-10T09:17:01.382Z,49.24
2023-06-10T09:18:05.566Z,48.73
2023-06-10T09:19:10.736Z,48.84
2023-06-10T09:20:14.639Z,48.52
2023-06-10T09:21:17.396Z,48.29
2023-06-10T09:22:20.441Z,48.01
2023-06-10T09:23:23.449Z,47.95
2023-06-10T09:24:27.227Z,47.92
2023-06-10T09:25:38.531Z,47.46
2023-06-10T09:26:42.112Z,47.57
2023-06-10T09:27:50.794Z,47.48
2023-06-10T09:28:57.294Z,47.01
2023-06-10T09:29:59.655Z,47.29
2023-06-10T09:31:08.588Z,47.18
2023-06-10T09:32:11.194Z,47.30
2023-06-10T09:33:16.855Z,47.26
2023-06-10T09:34:19.179Z,47.19
2023-06-10T09:35:22.098Z,47.08
2023-06-10T09:36:24.619Z,47.02
2023-06-10T09:37:27.432Z,47.21
2023-06-10T09:38:34.344Z,47.13
2023-06-10T09:39:37.804Z,47.16
2023-06-10T09:40:54.221Z,47.10
2023-06-10T09:41:56.585Z,47.03
2023-06-10T09:43:00.781Z,46.97
2023-06-10T09:44:09.334Z,47.08
2023-06-10T09:45:11.218Z,46.97
2023-06-10T09:46:19.544Z,47.42
2023-06-10T09:47:25.076Z,47.43
2023-06-10T09:48:27.453Z,47.34
2023-06-10T09:49:30.131Z,47.45
2023-06-10T09:50:35.567Z,47.54
2023-06-10T09:51:38.762Z,47.55
2023-06-10T09:52:41.537Z,47.76
2023-06-10T09:53:45.849Z,47.73
2023-06-10T09:54:48.317Z,47.73
2023-06-10T09:55:53.004Z,47.70
2023-06-10T09:56:57.646Z,47.74
2023-06-10T09:58:00.280Z,47.56
2023-06-10T09:59:03.905Z,47.67
2023-06-10T10:00:08.834Z,47.72
2023-06-10T10:01:17.905Z,48.06
2023-06-10T10:02:20.905Z,48.28
2023-06-10T10:03:25.163Z,48.28
2023-06-10T10:04:29.011Z,48.24
2023-06-10T10:05:31.586Z,48.32
2023-06-10T10:06:35.903Z,48.29
2023-06-10T10:07:38.070Z,48.12
2023-06-10T10:08:40.357Z,48.19
2023-06-10T10:09:44.079Z,48.70
2023-06-10T10:10:46.800Z,48.83
2023-06-10T10:11:50.328Z,48.91
2023-06-10T10:12:59.748Z,48.93
2023-06-10T10:14:04.535Z,48.89
2023-06-10T10:15:09.201Z,48.91
2023-06-10T10:16:21.424Z,48.65
2023-06-10T10:17:26.321Z,48.97
2023-06-10T10:18:31.914Z,49.01
2023-06-10T10:19:38.406Z,49.13
2023-06-10T10:20:50.748Z,49.40
2023-06-10T10:22:03.741Z,49.54
2023-06-10T10:23:10.081Z,49.56
2023-06-10T10:24:24.313Z,49.84
2023-06-10T10:25:40.339Z,49.97
2023-06-10T10:26:45.307Z,50.17
2023-06-10T10:28:00.631Z,50.62
2023-06-10T10:29:18.901Z,50.76
2023-06-10T10:30:22.737Z,50.88
2023-06-10T10:31:27.990Z,51.18
2023-06-10T10:32:43.972Z,51.28
2023-06-10T10:34:01.412Z,51.33
2023-06-10T10:35:13.491Z,51.34
2023-06-10T10:36:16.625Z,51.49
2023-06-10T10:37:21.774Z,51.40
2023-06-10T10:38:26.129Z,51.44
2023-06-10T10:39:29.450Z,51.60
2023-06-10T10:40:34.243Z,51.53
2023-06-10T10:41:39.457Z,51.66
2023-06-10T10:42:45.238Z,51.78
2023-06-10T10:43:52.039Z,51.72
2023-06-10T10:44:55.570Z,51.63
2023-06-10T10:46:04.038Z,51.36
2023-06-10T10:47:09.564Z,51.40
2023-06-10T10:48:18.601Z,51.33
2023-06-10T10:49:24.121Z,51.25
2023-06-10T10:50:31.066Z,51.24
2023-06-10T10:51:36.047Z,51.29
2023-06-10T10:52:56.703Z,50.92
2023-06-10T10:54:15.594Z,50.71
2023-06-10T10:55:18.222Z,50.52
2023-06-10T10:56:21.786Z,50.24
2023-06-10T10:57:26.916Z,50.26
2023-06-10T10:58:29.396Z,50.33
2023-06-10T11:00:00.018Z,50.17
2023-06-10T11:01:15.060Z,50.24
2023-06-10T11:02:19.629Z,50.16
2023-06-10T11:03:22.816Z,49.99
2023-06-10T11:04:27.293Z,49.70
2023-06-10T11:05:42.342Z,49.03
2023-06-10T11:06:56.104Z,48.81
2023-06-10T11:07:58.888Z,48.31
2023-06-10T11:09:24.351Z,47.77
2023-06-10T11:10:33.501Z,47.62
2023-06-10T11:11:39.452Z,47.89
2023-06-10T11:12:52.733Z,47.39
2023-06-10T11:14:09.250Z,47.35
2023-06-10T11:15:16.581Z,47.10
2023-06-10T11:16:20.973Z,47.05
2023-06-10T11:17:24.126Z,46.65
2023-06-10T11:18:28.049Z,46.25
2023-06-10T11:19:40.316Z,46.47
2023-06-10T11:20:58.130Z,46.53
2023-06-10T11:22:03.928Z,46.27
2023-06-10T11:23:07.428Z,46.41
2023-06-10T11:24:15.767Z,46.43
2023-06-10T11:25:21.909Z,45.82
2023-06-10T11:26:31.144Z,45.60
2023-06-10T11:27:41.509Z,45.54
2023-06-10T11:28:50.510Z,45.30
2023-06-10T11:30:06.268Z,45.17
2023-06-10T11:31:11.781Z,44.87
2023-06-10T11:32:15.336Z,44.52
2023-06-10T11:33:18.263Z,44.50
2023-06-10T11:34:25.484Z,44.38
2023-06-10T11:35:28.477Z,44.21
2023-06-10T11:36:37.711Z,44.53
2023-06-10T11:37:40.158Z,44.13
2023-06-10T11:38:45.272Z,44.23
2023-06-10T11:39:48.176Z,43.91
2023-06-10T11:40:51.447Z,43.79
2023-06-10T11:41:54.276Z,43.90
2023-06-10T11:42:57.948Z,43.89
2023-06-10T11:44:07.058Z,43.54
2023-06-10T11:45:11.276Z,43.52
2023-06-10T11:46:15.892Z,43.37
2023-06-10T11:47:19.753Z,43.11
2023-06-10T11:48:22.179Z,42.53
2023-06-10T11:49:26.518Z,41.93
2023-06-10T11:50:33.749Z,42.18
2023-06-10T11:51:41.605Z,42.31
2023-06-10T11:52:46.043Z,42.52
2023-06-10T11:53:49.370Z,42.55
2023-06-10T11:54:58.273Z,42.33
2023-06-10T11:56:01.426Z,41.98
2023-06-10T11:57:04.309Z,42.00
2023-06-10T11:58:16.350Z,41.91
2023-06-10T11:59:19.001Z,42.05
2023-06-10T12:00:23.007Z,42.37
2023-06-10T12:01:29.660Z,41.61
2023-06-10T12:02:33.433Z,41.71
2023-06-10T12:03:39.492Z,41.82
2023-06-10T12:04:42.469Z,41.39
2023-06-10T12:05:59.281Z,41.62
2023-06-10T12:07:01.821Z,41.09
2023-06-10T12:09:27.869Z,40.01
2023-06-10T12:10:30.223Z,39.72
2023-06-10T12:11:33.063Z,39.50
2023-06-10T12:12:38.453Z,39.41
2023-06-10T12:13:52.797Z,39.00
2023-06-10T12:14:58.499Z,39.15
2023-06-10T12:16:09.833Z,39.06
2023-06-10T12:17:13.264Z,37.60
2023-06-10T12:18:23.843Z,37.00
2023-06-10T12:19:27.705Z,36.68
2023-06-10T12:20:35.593Z,37.23
2023-06-10T12:21:41.545Z,38.38
2023-06-10T12:22:46.289Z,39.53
2023-06-10T12:24:11.774Z,40.07
2023-06-10T12:25:15.075Z,39.93
2023-06-10T12:26:17.850Z,39.62
2023-06-10T12:27:21.012Z,39.62
2023-06-10T12:28:25.094Z,39.29
2023-06-10T12:29:30.115Z,39.55
2023-06-10T12:30:33.423Z,40.38
2023-06-10T12:31:39.439Z,40.71
2023-06-10T12:32:47.027Z,41.15
2023-06-10T12:33:51.083Z,41.31
2023-06-10T12:35:05.754Z,41.62
2023-06-10T12:36:11.877Z,41.45
2023-06-10T12:37:14.278Z,41.80
2023-06-10T12:38:30.702Z,41.70
2023-06-10T12:39:35.004Z,41.77
2023-06-10T12:40:41.092Z,42.02
2023-06-10T12:41:55.302Z,42.53
2023-06-10T12:42:59.968Z,43.20
2023-06-10T12:44:02.907Z,44.25
2023-06-10T12:45:09.517Z,45.55
2023-06-10T12:46:13.389Z,44.74
2023-06-10T12:47:17.835Z,43.82
2023-06-10T12:48:22.075Z,43.16
2023-06-10T12:49:26.717Z,42.77
2023-06-10T12:50:30.520Z,42.95
2023-06-10T12:51:34.778Z,42.92
2023-06-10T12:52:37.885Z,44.21
2023-06-10T12:53:41.192Z,43.73
2023-06-10T12:54:44.178Z,44.02
2023-06-10T12:55:47.705Z,43.85
2023-06-10T12:56:50.723Z,43.81
2023-06-10T12:57:53.356Z,44.29
2023-06-10T12:58:55.910Z,44.53
2023-06-10T12:59:59.974Z,44.55
2023-06-10T13:01:02.470Z,44.64
2023-06-10T13:02:06.111Z,44.71
2023-06-10T13:03:10.301Z,44.74
2023-06-10T13:04:13.704Z,44.52
2023-06-10T13:05:17.503Z,44.22
2023-06-10T13:06:21.830Z,44.22
2023-06-10T13:07:24.422Z,43.58
2023-06-10T13:08:26.755Z,44.35
2023-06-10T13:09:29.180Z,44.79
2023-06-10T13:10:32.995Z,44.99
2023-06-10T13:11:37.613Z,44.88
2023-06-10T13:12:47.409Z,44.73
2023-06-10T13:13:47.433Z,45.16
2023-06-10T13:14:50.151Z,46.14
2023-06-10T13:15:53.737Z,45.83
2023-06-10T13:16:56.722Z,45.70
2023-06-10T13:17:59.787Z,46.58
2023-06-10T13:19:03.344Z,46.77
2023-06-10T13:20:08.938Z,48.17
2023-06-10T13:21:11.882Z,49.47
2023-06-10T13:22:14.358Z,51.64
2023-06-10T13:23:17.043Z,53.90
2023-06-10T13:24:21.388Z,53.75
2023-06-10T13:25:25.184Z,53.75
2023-06-10T13:26:27.861Z,57.33
2023-06-10T13:27:30.243Z,57.20
2023-06-10T13:28:35.994Z,58.93
2023-06-10T13:29:38.044Z,61.48
2023-06-10T13:30:40.693Z,64.05
2023-06-10T13:31:43.273Z,67.82
2023-06-10T13:32:45.761Z,74.34
2023-06-10T13:33:53.476Z,84.25
2023-06-10T13:34:59.104Z,91.75
2023-06-10T13:36:02.859Z,97.27
2023-06-10T13:37:06.012Z,100.00
2023-06-10T13:38:08.733Z,100.00
2023-06-10T13:39:11.710Z,100.00
2023-06-10T13:40:15.516Z,100.00
2023-06-10T13:41:18.476Z,100.00
2023-06-10T13:42:21.556Z,100.00
2023-06-10T13:43:24.277Z,100.00
2023-06-10T13:44:26.976Z,100.00
2023-06-10T13:45:30.631Z,100.00
2023-06-10T13:46:33.451Z,100.00
2023-06-10T13:47:35.637Z,100.00
2023-06-10T13:48:38.494Z,100.00
2023-06-10T13:49:41.686Z,100.00
2023-06-10T13:50:46.177Z,100.00
2023-06-10T13:51:48.884Z,100.00